Panagia — V2OQ5 — position and weather

sailwx.info

Track history (hours):
 
Tides and Currents Weather Stations Pressure Air Temp Water Temp Dewpoint Dewpoint Depression Visibility Wind Speed Wind Dir Waves Ship Positions

Panagia

Last reported at 2014-Aug-26 12:11 UTC. Time now 2014-Aug-27 13:14 UTC.
Position N 43°22' W 001°57'.

Length 120 m; draft 6 m.

Type: Ship. MMSI: 304610000.

Date/timePositionNaut miles runAvg speedWind from/ knotsBaromVisibWave heightAir tempDewpointWater temp
2014-Aug-26 12:11N 43°22' W 001°57'2 0.2
2014-Aug-26 02:28N 43°22' W 001°55'0 0.1
2014-Aug-26 01:31N 43°21' W 001°55'0 0.0
2014-Aug-25 18:09N 43°21' W 001°55'0 0.0
2014-Aug-25 17:22N 43°21' W 001°55'0 0.0
2014-Aug-25 16:28N 43°21' W 001°55'0 0.0
2014-Aug-25 15:28N 43°21' W 001°55'  
2014-Aug-22 17:33N 50°32' E 000°19'1111.1
2014-Aug-22 16:33N 50°36' E 000°36'1212.2
2014-Aug-22 15:33N 50°42' E 000°52'2612.0
2014-Aug-22 13:24N 50°58' E 001°24'911.2
2014-Aug-22 12:33N 51°05' E 001°34'1110.6
2014-Aug-22 11:33N 51°13' E 001°46'1110.7
2014-Aug-22 10:33N 51°22' E 001°55'1111.1
2014-Aug-22 09:33N 51°31' E 002°05'1411.9
2014-Aug-22 08:25N 51°42' E 002°19'14412.0
2014-Aug-21 20:22N 53°32' E 004°52'1112.5
2014-Aug-21 19:32N 53°35' E 005°09'1212.0
2014-Aug-21 18:33N 53°39' E 005°28'1211.5
2014-Aug-21 17:33N 53°43' E 005°46'6112.1
2014-Aug-21 12:32N 53°60' E 007°24'1313.2
2014-Aug-21 11:33N 54°02' E 007°46'2713.5
2014-Aug-21 09:33N 53°58' E 008°32'1312.8
2014-Aug-21 08:33N 53°51' E 008°49'1211.7
2014-Aug-21 07:34N 53°53' E 009°08'1010.4
2014-Aug-21 06:33N 53°47' E 009°23'1313.5
2014-Aug-21 05:33N 53°36' E 009°36'1110.8
2014-Aug-21 04:33N 53°33' E 009°53'4 3.0
2014-Aug-21 03:18N 53°32' E 009°59'0 0.0
2014-Aug-21 02:30N 53°32' E 009°59'0 0.0
2014-Aug-21 01:29N 53°32' E 009°59'0 0.0
2014-Aug-21 00:22N 53°32' E 009°59'0 0.0
2014-Aug-20 23:28N 53°32' E 009°59'0 0.0
2014-Aug-20 22:27N 53°32' E 009°59'0 0.0
2014-Aug-20 21:27N 53°32' E 009°59'0 0.0
2014-Aug-20 20:33N 53°32' E 009°59'0 0.0
2014-Aug-20 19:32N 53°32' E 009°59'0 0.0
2014-Aug-20 18:33N 53°32' E 009°59'0 0.0
2014-Aug-20 17:31N 53°32' E 009°59'0 0.0
2014-Aug-20 16:31N 53°32' E 009°59'0 0.0
2014-Aug-20 15:32N 53°32' E 009°59'0 0.0
2014-Aug-20 14:25N 53°32' E 009°59'0 0.0
2014-Aug-20 13:31N 53°32' E 009°59'0 0.0
2014-Aug-20 12:19N 53°32' E 009°59'0 0.0
2014-Aug-20 11:32N 53°32' E 009°59'0 0.0
2014-Aug-20 10:25N 53°32' E 009°59'0 0.0
2014-Aug-20 09:32N 53°32' E 009°59'0 0.0
2014-Aug-20 08:19N 53°32' E 009°59'0 0.0
2014-Aug-20 07:13N 53°32' E 009°59'0 0.0
2014-Aug-20 02:20N 53°32' E 009°59'0 0.0
2014-Aug-19 23:10N 53°32' E 009°59'0 0.0
2014-Aug-19 22:30N 53°32' E 009°59'0 0.0
2014-Aug-19 21:30N 53°32' E 009°59'0 0.0
2014-Aug-19 20:30N 53°32' E 009°59'0 0.0
2014-Aug-19 19:26N 53°32' E 009°59'0 0.0
2014-Aug-19 18:32N 53°32' E 009°59'0 0.0
2014-Aug-19 17:30N 53°32' E 009°59'1 0.8
2014-Aug-19 16:33N 53°33' E 009°58'9 8.7
2014-Aug-19 15:33N 53°34' E 009°44'1010.4
2014-Aug-19 14:33N 53°41' E 009°30'1212.0
2014-Aug-19 13:33N 53°51' E 009°20'9 8.8
2014-Aug-19 12:33N 53°52' E 009°05'1211.5
2014-Aug-19 11:33N 53°51' E 008°45'1211.2
2014-Aug-19 10:28N 53°59' E 008°29'1111.6
2014-Aug-19 09:33N 53°60' E 008°11'1413.8
2014-Aug-19 08:32N 53°57' E 007°47'1010.6
2014-Aug-19 07:33N 54°03' E 007°32'1313.5
2014-Aug-19 06:33N 54°16' E 007°24'1313.5
2014-Aug-19 05:33N 54°29' E 007°23'1413.6
2014-Aug-19 04:33N 54°43' E 007°22'1413.8
2014-Aug-19 03:32N 54°57' E 007°22'1413.9
2014-Aug-19 02:33N 55°10' E 007°22'1414.0
2014-Aug-19 01:33N 55°24' E 007°22'1413.6
2014-Aug-19 00:33N 55°38' E 007°22'11311.2
2014-Aug-18 14:27N 57°23' E 008°35'5111.8
2014-Aug-18 10:07N 57°42' E 010°03'712.1
2014-Aug-18 09:33N 57°44' E 010°16'1111.4
2014-Aug-18 08:33N 57°49' E 010°35'1212.1
2014-Aug-18 07:33N 57°45' E 010°57'1313.0
2014-Aug-18 06:33N 57°39' E 011°19'1212.2
2014-Aug-18 05:33N 57°33' E 011°39'0 0.4
2014-Aug-18 04:31N 57°33' E 011°39'0 0.0
2014-Aug-18 03:31N 57°33' E 011°39'0 0.0
2014-Aug-18 02:31N 57°33' E 011°39'0 0.0
2014-Aug-18 01:31N 57°33' E 011°39'0 0.0
2014-Aug-18 00:25N 57°33' E 011°39'0 0.0
2014-Aug-17 18:29N 57°33' E 011°39'0 0.0
2014-Aug-17 17:29N 57°33' E 011°39'0 0.0
2014-Aug-17 16:31N 57°33' E 011°39'0 0.0
2014-Aug-17 15:31N 57°33' E 011°39'0 0.0
2014-Aug-17 14:31N 57°33' E 011°39'0 0.0
2014-Aug-17 13:31N 57°33' E 011°39'0 0.0
2014-Aug-17 12:33N 57°33' E 011°39'0 0.0
2014-Aug-17 11:31N 57°33' E 011°39'0 0.0
2014-Aug-17 10:31N 57°33' E 011°39'0 0.0
2014-Aug-17 09:30N 57°33' E 011°39'0 0.0
2014-Aug-17 08:30N 57°33' E 011°39'0 0.0
2014-Aug-17 07:29N 57°33' E 011°39'0 0.0
2014-Aug-17 06:28N 57°33' E 011°39'0 0.0
2014-Aug-17 05:28N 57°33' E 011°39'0 0.0
2014-Aug-17 04:28N 57°33' E 011°39'0 0.0
2014-Aug-17 03:33N 57°33' E 011°39'0 0.0
2014-Aug-17 02:33N 57°33' E 011°39'0 0.0
2014-Aug-17 01:33N 57°33' E 011°39'0 0.0
2014-Aug-17 00:33N 57°33' E 011°39'0 0.0
2014-Aug-16 23:33N 57°33' E 011°39'0 0.0
2014-Aug-16 22:32N 57°33' E 011°39'0 0.1
2014-Aug-16 21:33N 57°33' E 011°39'0 0.0
2014-Aug-16 20:33N 57°33' E 011°39'0 0.1
2014-Aug-16 19:33N 57°33' E 011°39'0 0.0
2014-Aug-16 18:33N 57°33' E 011°39'0 0.0
2014-Aug-16 17:33N 57°33' E 011°39'0 0.0
2014-Aug-16 16:33N 57°33' E 011°39'0 0.0
2014-Aug-16 15:33N 57°33' E 011°39'0 0.0
2014-Aug-16 14:32N 57°33' E 011°39'0 0.0
2014-Aug-16 13:32N 57°33' E 011°39'0 0.0
2014-Aug-16 12:33N 57°33' E 011°39'  
Track history (hours):
 
Tides and Currents Weather Stations Pressure Air Temp Water Temp Dewpoint Dewpoint Depression Visibility Wind Speed Wind Dir Waves Ship Positions

Panagia

Last reported at 2014-Aug-26 12:11 UTC. Time now 2014-Aug-27 13:14 UTC.
Position N 43°22' W 001°57'.

Length 120 m; draft 6 m.

Type: Ship. MMSI: 304610000.

Date/timePositionNaut miles runAvg speedWind from/ knotsBaromVisibWave heightAir tempDewpointWater temp
2014-Aug-26 12:11N 43°22' W 001°57'2 0.2
2014-Aug-26 02:28N 43°22' W 001°55'0 0.1
2014-Aug-26 01:31N 43°21' W 001°55'0 0.0
2014-Aug-25 18:09N 43°21' W 001°55'0 0.0
2014-Aug-25 17:22N 43°21' W 001°55'0 0.0
2014-Aug-25 16:28N 43°21' W 001°55'0 0.0
2014-Aug-25 15:28N 43°21' W 001°55'  
2014-Aug-22 17:33N 50°32' E 000°19'1111.1
2014-Aug-22 16:33N 50°36' E 000°36'1212.2
2014-Aug-22 15:33N 50°42' E 000°52'2612.0
2014-Aug-22 13:24N 50°58' E 001°24'911.2
2014-Aug-22 12:33N 51°05' E 001°34'1110.6
2014-Aug-22 11:33N 51°13' E 001°46'1110.7
2014-Aug-22 10:33N 51°22' E 001°55'1111.1
2014-Aug-22 09:33N 51°31' E 002°05'1411.9
2014-Aug-22 08:25N 51°42' E 002°19'14412.0
2014-Aug-21 20:22N 53°32' E 004°52'1112.5
2014-Aug-21 19:32N 53°35' E 005°09'1212.0
2014-Aug-21 18:33N 53°39' E 005°28'1211.5
2014-Aug-21 17:33N 53°43' E 005°46'6112.1
2014-Aug-21 12:32N 53°60' E 007°24'1313.2
2014-Aug-21 11:33N 54°02' E 007°46'2713.5
2014-Aug-21 09:33N 53°58' E 008°32'1312.8
2014-Aug-21 08:33N 53°51' E 008°49'1211.7
2014-Aug-21 07:34N 53°53' E 009°08'1010.4
2014-Aug-21 06:33N 53°47' E 009°23'1313.5
2014-Aug-21 05:33N 53°36' E 009°36'1110.8
2014-Aug-21 04:33N 53°33' E 009°53'4 3.0
2014-Aug-21 03:18N 53°32' E 009°59'0 0.0
2014-Aug-21 02:30N 53°32' E 009°59'0 0.0
2014-Aug-21 01:29N 53°32' E 009°59'0 0.0
2014-Aug-21 00:22N 53°32' E 009°59'0 0.0
2014-Aug-20 23:28N 53°32' E 009°59'0 0.0
2014-Aug-20 22:27N 53°32' E 009°59'0 0.0
2014-Aug-20 21:27N 53°32' E 009°59'0 0.0
2014-Aug-20 20:33N 53°32' E 009°59'0 0.0
2014-Aug-20 19:32N 53°32' E 009°59'0 0.0
2014-Aug-20 18:33N 53°32' E 009°59'0 0.0
2014-Aug-20 17:31N 53°32' E 009°59'0 0.0
2014-Aug-20 16:31N 53°32' E 009°59'0 0.0
2014-Aug-20 15:32N 53°32' E 009°59'0 0.0
2014-Aug-20 14:25N 53°32' E 009°59'0 0.0
2014-Aug-20 13:31N 53°32' E 009°59'0 0.0
2014-Aug-20 12:19N 53°32' E 009°59'0 0.0
2014-Aug-20 11:32N 53°32' E 009°59'0 0.0
2014-Aug-20 10:25N 53°32' E 009°59'0 0.0
2014-Aug-20 09:32N 53°32' E 009°59'0 0.0
2014-Aug-20 08:19N 53°32' E 009°59'0 0.0
2014-Aug-20 07:13N 53°32' E 009°59'0 0.0
2014-Aug-20 02:20N 53°32' E 009°59'0 0.0
2014-Aug-19 23:10N 53°32' E 009°59'0 0.0
2014-Aug-19 22:30N 53°32' E 009°59'0 0.0
2014-Aug-19 21:30N 53°32' E 009°59'0 0.0
2014-Aug-19 20:30N 53°32' E 009°59'0 0.0
2014-Aug-19 19:26N 53°32' E 009°59'0 0.0
2014-Aug-19 18:32N 53°32' E 009°59'0 0.0
2014-Aug-19 17:30N 53°32' E 009°59'1 0.8
2014-Aug-19 16:33N 53°33' E 009°58'9 8.7
2014-Aug-19 15:33N 53°34' E 009°44'1010.4
2014-Aug-19 14:33N 53°41' E 009°30'1212.0
2014-Aug-19 13:33N 53°51' E 009°20'9 8.8
2014-Aug-19 12:33N 53°52' E 009°05'1211.5
2014-Aug-19 11:33N 53°51' E 008°45'1211.2
2014-Aug-19 10:28N 53°59' E 008°29'1111.6
2014-Aug-19 09:33N 53°60' E 008°11'1413.8
2014-Aug-19 08:32N 53°57' E 007°47'1010.6
2014-Aug-19 07:33N 54°03' E 007°32'1313.5
2014-Aug-19 06:33N 54°16' E 007°24'1313.5
2014-Aug-19 05:33N 54°29' E 007°23'1413.6
2014-Aug-19 04:33N 54°43' E 007°22'1413.8
2014-Aug-19 03:32N 54°57' E 007°22'1413.9
2014-Aug-19 02:33N 55°10' E 007°22'1414.0
2014-Aug-19 01:33N 55°24' E 007°22'1413.6
2014-Aug-19 00:33N 55°38' E 007°22'11311.2
2014-Aug-18 14:27N 57°23' E 008°35'5111.8
2014-Aug-18 10:07N 57°42' E 010°03'712.1
2014-Aug-18 09:33N 57°44' E 010°16'1111.4
2014-Aug-18 08:33N 57°49' E 010°35'1212.1
2014-Aug-18 07:33N 57°45' E 010°57'1313.0
2014-Aug-18 06:33N 57°39' E 011°19'1212.2
2014-Aug-18 05:33N 57°33' E 011°39'0 0.4
2014-Aug-18 04:31N 57°33' E 011°39'0 0.0
2014-Aug-18 03:31N 57°33' E 011°39'0 0.0
2014-Aug-18 02:31N 57°33' E 011°39'0 0.0
2014-Aug-18 01:31N 57°33' E 011°39'0 0.0
2014-Aug-18 00:25N 57°33' E 011°39'0 0.0
2014-Aug-17 18:29N 57°33' E 011°39'0 0.0
2014-Aug-17 17:29N 57°33' E 011°39'0 0.0
2014-Aug-17 16:31N 57°33' E 011°39'0 0.0
2014-Aug-17 15:31N 57°33' E 011°39'0 0.0
2014-Aug-17 14:31N 57°33' E 011°39'0 0.0
2014-Aug-17 13:31N 57°33' E 011°39'0 0.0
2014-Aug-17 12:33N 57°33' E 011°39'0 0.0
2014-Aug-17 11:31N 57°33' E 011°39'0 0.0
2014-Aug-17 10:31N 57°33' E 011°39'0 0.0
2014-Aug-17 09:30N 57°33' E 011°39'0 0.0
2014-Aug-17 08:30N 57°33' E 011°39'0 0.0
2014-Aug-17 07:29N 57°33' E 011°39'0 0.0
2014-Aug-17 06:28N 57°33' E 011°39'0 0.0
2014-Aug-17 05:28N 57°33' E 011°39'0 0.0
2014-Aug-17 04:28N 57°33' E 011°39'0 0.0
2014-Aug-17 03:33N 57°33' E 011°39'0 0.0
2014-Aug-17 02:33N 57°33' E 011°39'0 0.0
2014-Aug-17 01:33N 57°33' E 011°39'0 0.0
2014-Aug-17 00:33N 57°33' E 011°39'0 0.0
2014-Aug-16 23:33N 57°33' E 011°39'0 0.0
2014-Aug-16 22:32N 57°33' E 011°39'0 0.1
2014-Aug-16 21:33N 57°33' E 011°39'0 0.0
2014-Aug-16 20:33N 57°33' E 011°39'0 0.1
2014-Aug-16 19:33N 57°33' E 011°39'0 0.0
2014-Aug-16 18:33N 57°33' E 011°39'0 0.0
2014-Aug-16 17:33N 57°33' E 011°39'0 0.0
2014-Aug-16 16:33N 57°33' E 011°39'0 0.0
2014-Aug-16 15:33N 57°33' E 011°39'0 0.0
2014-Aug-16 14:32N 57°33' E 011°39'0 0.0
2014-Aug-16 13:32N 57°33' E 011°39'0 0.0
2014-Aug-16 12:33N 57°33' E 011°39'  

Dump ship's entire track history